sensor_id;sensor_type;location;lat;lon;timestamp;temperature;humidity
48579;DHT22;34357;51.948;6.132;2024-02-14T00:02:21;7.80;93.00
48579;DHT22;34357;51.948;6.132;2024-02-14T00:04:47;7.80;93.00
48579;DHT22;34357;51.948;6.132;2024-02-14T00:07:13;7.80;93.00
48579;DHT22;34357;51.948;6.132;2024-02-14T00:09:40;7.80;93.00
48579;DHT22;34357;51.948;6.132;2024-02-14T00:12:06;7.80;93.10
48579;DHT22;34357;51.948;6.132;2024-02-14T00:14:32;7.80;93.00
48579;DHT22;34357;51.948;6.132;2024-02-14T00:16:58;7.80;93.10
48579;DHT22;34357;51.948;6.132;2024-02-14T00:19:25;7.80;93.10
48579;DHT22;34357;51.948;6.132;2024-02-14T00:21:51;7.80;93.10
48579;DHT22;34357;51.948;6.132;2024-02-14T00:24:18;7.90;93.20
48579;DHT22;34357;51.948;6.132;2024-02-14T00:26:45;7.90;93.20
48579;DHT22;34357;51.948;6.132;2024-02-14T00:29:12;7.90;93.20
48579;DHT22;34357;51.948;6.132;2024-02-14T00:31:37;7.90;93.20
48579;DHT22;34357;51.948;6.132;2024-02-14T00:34:03;7.90;93.30
48579;DHT22;34357;51.948;6.132;2024-02-14T00:36:30;7.90;93.40
48579;DHT22;34357;51.948;6.132;2024-02-14T00:38:56;7.90;93.50
48579;DHT22;34357;51.948;6.132;2024-02-14T00:41:21;7.90;93.50
48579;DHT22;34357;51.948;6.132;2024-02-14T00:43:47;7.90;93.50
48579;DHT22;34357;51.948;6.132;2024-02-14T00:46:16;7.90;93.50
48579;DHT22;34357;51.948;6.132;2024-02-14T00:48:43;8.00;93.50
48579;DHT22;34357;51.948;6.132;2024-02-14T00:51:10;8.00;93.50
48579;DHT22;34357;51.948;6.132;2024-02-14T00:53:36;8.00;93.50
48579;DHT22;34357;51.948;6.132;2024-02-14T00:56:02;8.00;93.50
48579;DHT22;34357;51.948;6.132;2024-02-14T00:58:28;8.00;93.60
48579;DHT22;34357;51.948;6.132;2024-02-14T01:00:53;8.00;93.60
48579;DHT22;34357;51.948;6.132;2024-02-14T01:03:19;8.00;93.60
48579;DHT22;34357;51.948;6.132;2024-02-14T01:05:45;8.00;93.70
48579;DHT22;34357;51.948;6.132;2024-02-14T01:08:11;8.00;93.70
48579;DHT22;34357;51.948;6.132;2024-02-14T01:10:38;8.00;93.70
48579;DHT22;34357;51.948;6.132;2024-02-14T01:13:04;8.00;93.80
48579;DHT22;34357;51.948;6.132;2024-02-14T01:15:30;8.10;93.80
48579;DHT22;34357;51.948;6.132;2024-02-14T01:17:56;8.10;93.90
48579;DHT22;34357;51.948;6.132;2024-02-14T01:20:22;8.10;93.90
48579;DHT22;34357;51.948;6.132;2024-02-14T01:22:47;8.10;93.80
48579;DHT22;34357;51.948;6.132;2024-02-14T01:25:14;8.20;93.80
48579;DHT22;34357;51.948;6.132;2024-02-14T01:27:39;8.20;93.70
48579;DHT22;34357;51.948;6.132;2024-02-14T01:30:07;8.20;93.70
48579;DHT22;34357;51.948;6.132;2024-02-14T01:32:33;8.20;93.70
48579;DHT22;34357;51.948;6.132;2024-02-14T01:34:58;8.30;93.60
48579;DHT22;34357;51.948;6.132;2024-02-14T01:37:26;8.30;93.60
48579;DHT22;34357;51.948;6.132;2024-02-14T01:39:52;8.30;93.60
48579;DHT22;34357;51.948;6.132;2024-02-14T01:42:18;8.30;93.60
48579;DHT22;34357;51.948;6.132;2024-02-14T01:44:44;8.30;93.60
48579;DHT22;34357;51.948;6.132;2024-02-14T01:47:10;8.30;93.60
48579;DHT22;34357;51.948;6.132;2024-02-14T01:49:38;8.40;93.50
48579;DHT22;34357;51.948;6.132;2024-02-14T01:52:05;8.40;93.50
48579;DHT22;34357;51.948;6.132;2024-02-14T01:54:31;8.40;93.40
48579;DHT22;34357;51.948;6.132;2024-02-14T01:56:58;8.40;93.40
48579;DHT22;34357;51.948;6.132;2024-02-14T01:59:26;8.40;93.40
48579;DHT22;34357;51.948;6.132;2024-02-14T02:01:52;8.50;93.40
48579;DHT22;34357;51.948;6.132;2024-02-14T02:04:18;8.50;93.30
48579;DHT22;34357;51.948;6.132;2024-02-14T02:06:44;8.50;93.30
48579;DHT22;34357;51.948;6.132;2024-02-14T02:09:10;8.60;93.30
48579;DHT22;34357;51.948;6.132;2024-02-14T02:11:47;8.60;93.20
48579;DHT22;34357;51.948;6.132;2024-02-14T02:14:14;8.60;93.20
48579;DHT22;34357;51.948;6.132;2024-02-14T02:16:40;8.60;93.30
48579;DHT22;34357;51.948;6.132;2024-02-14T02:19:06;8.60;93.20
48579;DHT22;34357;51.948;6.132;2024-02-14T02:21:38;8.60;93.30
48579;DHT22;34357;51.948;6.132;2024-02-14T02:24:04;8.70;93.30
48579;DHT22;34357;51.948;6.132;2024-02-14T02:26:30;8.60;93.30
48579;DHT22;34357;51.948;6.132;2024-02-14T02:28:56;8.60;93.40
48579;DHT22;34357;51.948;6.132;2024-02-14T02:31:22;8.70;93.30
48579;DHT22;34357;51.948;6.132;2024-02-14T02:33:47;8.70;93.20
48579;DHT22;34357;51.948;6.132;2024-02-14T02:36:13;8.70;93.30
48579;DHT22;34357;51.948;6.132;2024-02-14T02:38:41;8.80;93.20
48579;DHT22;34357;51.948;6.132;2024-02-14T02:41:07;8.70;93.20
48579;DHT22;34357;51.948;6.132;2024-02-14T02:43:33;8.80;93.20
48579;DHT22;34357;51.948;6.132;2024-02-14T02:46:00;8.80;93.20
48579;DHT22;34357;51.948;6.132;2024-02-14T02:48:26;8.70;93.30
48579;DHT22;34357;51.948;6.132;2024-02-14T02:50:52;8.70;93.40
48579;DHT22;34357;51.948;6.132;2024-02-14T02:53:18;8.70;93.50
48579;DHT22;34357;51.948;6.132;2024-02-14T02:55:44;8.70;93.70
48579;DHT22;34357;51.948;6.132;2024-02-14T02:58:11;8.80;93.80
48579;DHT22;34357;51.948;6.132;2024-02-14T03:00:37;8.70;93.80
48579;DHT22;34357;51.948;6.132;2024-02-14T03:03:03;8.70;93.80
48579;DHT22;34357;51.948;6.132;2024-02-14T03:05:30;8.70;93.90
48579;DHT22;34357;51.948;6.132;2024-02-14T03:07:59;8.80;94.00
48579;DHT22;34357;51.948;6.132;2024-02-14T03:10:25;8.80;94.00
48579;DHT22;34357;51.948;6.132;2024-02-14T03:12:51;8.80;94.10
48579;DHT22;34357;51.948;6.132;2024-02-14T03:15:18;8.90;94.10
48579;DHT22;34357;51.948;6.132;2024-02-14T03:17:44;8.80;94.10
48579;DHT22;34357;51.948;6.132;2024-02-14T03:20:11;8.80;94.20
48579;DHT22;34357;51.948;6.132;2024-02-14T03:22:41;8.80;94.20
48579;DHT22;34357;51.948;6.132;2024-02-14T03:25:13;8.80;94.30
48579;DHT22;34357;51.948;6.132;2024-02-14T03:27:40;8.80;94.20
48579;DHT22;34357;51.948;6.132;2024-02-14T03:30:06;8.80;94.30
48579;DHT22;34357;51.948;6.132;2024-02-14T03:32:32;8.80;94.40
48579;DHT22;34357;51.948;6.132;2024-02-14T03:34:58;8.90;94.50
48579;DHT22;34357;51.948;6.132;2024-02-14T03:37:26;8.90;94.50
48579;DHT22;34357;51.948;6.132;2024-02-14T03:39:52;8.90;94.50
48579;DHT22;34357;51.948;6.132;2024-02-14T03:42:18;8.90;94.50
48579;DHT22;34357;51.948;6.132;2024-02-14T03:44:45;8.90;94.50
48579;DHT22;34357;51.948;6.132;2024-02-14T03:47:12;8.90;94.50
48579;DHT22;34357;51.948;6.132;2024-02-14T03:49:39;8.90;94.60
48579;DHT22;34357;51.948;6.132;2024-02-14T03:52:06;8.90;94.60
48579;DHT22;34357;51.948;6.132;2024-02-14T03:54:38;8.90;94.60
48579;DHT22;34357;51.948;6.132;2024-02-14T03:57:04;9.00;94.70
48579;DHT22;34357;51.948;6.132;2024-02-14T03:59:36;9.00;94.70
48579;DHT22;34357;51.948;6.132;2024-02-14T04:02:01;9.00;94.80
48579;DHT22;34357;51.948;6.132;2024-02-14T04:04:27;9.00;94.70
48579;DHT22;34357;51.948;6.132;2024-02-14T04:06:54;9.00;94.80
48579;DHT22;34357;51.948;6.132;2024-02-14T04:09:19;9.10;94.70
48579;DHT22;34357;51.948;6.132;2024-02-14T04:11:45;9.20;94.70
48579;DHT22;34357;51.948;6.132;2024-02-14T04:14:11;9.20;94.60
48579;DHT22;34357;51.948;6.132;2024-02-14T04:16:37;9.20;94.50
48579;DHT22;34357;51.948;6.132;2024-02-14T04:19:02;9.30;94.50
48579;DHT22;34357;51.948;6.132;2024-02-14T04:21:28;9.20;94.50
48579;DHT22;34357;51.948;6.132;2024-02-14T04:23:54;9.20;94.50
48579;DHT22;34357;51.948;6.132;2024-02-14T04:26:21;9.20;94.50
48579;DHT22;34357;51.948;6.132;2024-02-14T04:28:47;9.20;94.50
48579;DHT22;34357;51.948;6.132;2024-02-14T04:31:13;9.30;94.50
48579;DHT22;34357;51.948;6.132;2024-02-14T04:33:39;9.30;94.50
48579;DHT22;34357;51.948;6.132;2024-02-14T04:36:06;9.20;94.50
48579;DHT22;34357;51.948;6.132;2024-02-14T04:38:32;9.20;94.50
48579;DHT22;34357;51.948;6.132;2024-02-14T04:40:57;9.20;94.50
48579;DHT22;34357;51.948;6.132;2024-02-14T04:43:25;9.30;94.40
48579;DHT22;34357;51.948;6.132;2024-02-14T04:45:52;9.30;94.40
48579;DHT22;34357;51.948;6.132;2024-02-14T04:48:19;9.30;94.50
48579;DHT22;34357;51.948;6.132;2024-02-14T04:50:45;9.40;94.50
48579;DHT22;34357;51.948;6.132;2024-02-14T04:53:10;9.30;94.50
48579;DHT22;34357;51.948;6.132;2024-02-14T04:55:36;9.30;94.50
48579;DHT22;34357;51.948;6.132;2024-02-14T04:58:02;9.30;94.50
48579;DHT22;34357;51.948;6.132;2024-02-14T05:00:28;9.30;94.60
48579;DHT22;34357;51.948;6.132;2024-02-14T05:02:54;9.40;94.70
48579;DHT22;34357;51.948;6.132;2024-02-14T05:05:19;9.40;94.60
48579;DHT22;34357;51.948;6.132;2024-02-14T05:07:46;9.40;94.70
48579;DHT22;34357;51.948;6.132;2024-02-14T05:10:12;9.40;94.70
48579;DHT22;34357;51.948;6.132;2024-02-14T05:12:39;9.40;94.80
48579;DHT22;34357;51.948;6.132;2024-02-14T05:15:05;9.40;94.80
48579;DHT22;34357;51.948;6.132;2024-02-14T05:17:31;9.40;94.90
48579;DHT22;34357;51.948;6.132;2024-02-14T05:19:56;9.40;94.80
48579;DHT22;34357;51.948;6.132;2024-02-14T05:22:22;9.40;94.90
48579;DHT22;34357;51.948;6.132;2024-02-14T05:24:48;9.40;94.90
48579;DHT22;34357;51.948;6.132;2024-02-14T05:27:14;9.40;94.80
48579;DHT22;34357;51.948;6.132;2024-02-14T05:29:40;9.40;94.80
48579;DHT22;34357;51.948;6.132;2024-02-14T05:32:06;9.40;94.80
48579;DHT22;34357;51.948;6.132;2024-02-14T05:34:31;9.40;94.80
48579;DHT22;34357;51.948;6.132;2024-02-14T05:36:57;9.40;94.90
48579;DHT22;34357;51.948;6.132;2024-02-14T05:39:23;9.40;94.90
48579;DHT22;34357;51.948;6.132;2024-02-14T05:41:50;9.40;94.80
48579;DHT22;34357;51.948;6.132;2024-02-14T05:44:15;9.50;94.90
48579;DHT22;34357;51.948;6.132;2024-02-14T05:46:41;9.50;94.80
48579;DHT22;34357;51.948;6.132;2024-02-14T05:49:07;9.50;94.90
48579;DHT22;34357;51.948;6.132;2024-02-14T05:51:33;9.40;94.90
48579;DHT22;34357;51.948;6.132;2024-02-14T05:53:58;9.50;94.90
48579;DHT22;34357;51.948;6.132;2024-02-14T05:56:25;9.50;94.80
48579;DHT22;34357;51.948;6.132;2024-02-14T05:58:51;9.50;94.90
48579;DHT22;34357;51.948;6.132;2024-02-14T06:01:16;9.50;94.90
48579;DHT22;34357;51.948;6.132;2024-02-14T06:03:42;9.50;94.90
48579;DHT22;34357;51.948;6.132;2024-02-14T06:06:08;9.50;94.90
48579;DHT22;34357;51.948;6.132;2024-02-14T06:08:34;9.40;94.90
48579;DHT22;34357;51.948;6.132;2024-02-14T06:11:00;9.40;95.00
48579;DHT22;34357;51.948;6.132;2024-02-14T06:13:25;9.40;95.00
48579;DHT22;34357;51.948;6.132;2024-02-14T06:15:51;9.50;95.10
48579;DHT22;34357;51.948;6.132;2024-02-14T06:18:17;9.50;95.00
48579;DHT22;34357;51.948;6.132;2024-02-14T06:20:42;9.50;95.10
48579;DHT22;34357;51.948;6.132;2024-02-14T06:23:08;9.40;95.10
48579;DHT22;34357;51.948;6.132;2024-02-14T06:25:34;9.50;95.10
48579;DHT22;34357;51.948;6.132;2024-02-14T06:27:59;9.50;95.10
48579;DHT22;34357;51.948;6.132;2024-02-14T06:30:25;9.50;95.10
48579;DHT22;34357;51.948;6.132;2024-02-14T06:32:51;9.50;95.10
48579;DHT22;34357;51.948;6.132;2024-02-14T06:35:17;9.50;95.10
48579;DHT22;34357;51.948;6.132;2024-02-14T06:37:45;9.50;95.10
48579;DHT22;34357;51.948;6.132;2024-02-14T06:40:11;9.50;95.20
48579;DHT22;34357;51.948;6.132;2024-02-14T06:42:37;9.50;95.20
48579;DHT22;34357;51.948;6.132;2024-02-14T06:45:03;9.50;95.20
48579;DHT22;34357;51.948;6.132;2024-02-14T06:47:29;9.50;95.30
48579;DHT22;34357;51.948;6.132;2024-02-14T06:49:56;9.50;95.30
48579;DHT22;34357;51.948;6.132;2024-02-14T06:52:21;9.50;95.30
48579;DHT22;34357;51.948;6.132;2024-02-14T06:54:47;9.50;95.30
48579;DHT22;34357;51.948;6.132;2024-02-14T06:57:14;9.50;95.30
48579;DHT22;34357;51.948;6.132;2024-02-14T06:59:39;9.50;95.50
48579;DHT22;34357;51.948;6.132;2024-02-14T07:02:05;9.60;95.40
48579;DHT22;34357;51.948;6.132;2024-02-14T07:04:32;9.50;95.40
48579;DHT22;34357;51.948;6.132;2024-02-14T07:06:58;9.60;95.40
48579;DHT22;34357;51.948;6.132;2024-02-14T07:09:23;9.50;95.40
48579;DHT22;34357;51.948;6.132;2024-02-14T07:11:51;9.60;95.60
48579;DHT22;34357;51.948;6.132;2024-02-14T07:14:19;9.60;95.50
48579;DHT22;34357;51.948;6.132;2024-02-14T07:16:45;9.60;95.50
48579;DHT22;34357;51.948;6.132;2024-02-14T07:19:10;9.60;95.50
48579;DHT22;34357;51.948;6.132;2024-02-14T07:21:36;9.60;95.50
48579;DHT22;34357;51.948;6.132;2024-02-14T07:24:04;9.60;95.50
48579;DHT22;34357;51.948;6.132;2024-02-14T07:26:31;9.60;95.60
48579;DHT22;34357;51.948;6.132;2024-02-14T07:28:56;9.70;95.60
48579;DHT22;34357;51.948;6.132;2024-02-14T07:31:22;9.60;95.60
48579;DHT22;34357;51.948;6.132;2024-02-14T07:33:48;9.70;95.60
48579;DHT22;34357;51.948;6.132;2024-02-14T07:36:15;9.70;95.60
48579;DHT22;34357;51.948;6.132;2024-02-14T07:38:42;9.80;95.60
48579;DHT22;34357;51.948;6.132;2024-02-14T07:41:08;9.70;95.50
48579;DHT22;34357;51.948;6.132;2024-02-14T07:43:34;9.80;95.50
48579;DHT22;34357;51.948;6.132;2024-02-14T07:46:00;9.80;95.50
48579;DHT22;34357;51.948;6.132;2024-02-14T07:48:26;9.80;95.50
48579;DHT22;34357;51.948;6.132;2024-02-14T07:50:52;9.80;95.50
48579;DHT22;34357;51.948;6.132;2024-02-14T07:53:18;9.80;95.40
48579;DHT22;34357;51.948;6.132;2024-02-14T07:55:43;9.90;95.40
48579;DHT22;34357;51.948;6.132;2024-02-14T07:58:09;9.90;95.50
48579;DHT22;34357;51.948;6.132;2024-02-14T08:00:35;9.90;95.50
48579;DHT22;34357;51.948;6.132;2024-02-14T08:03:00;9.90;95.40
48579;DHT22;34357;51.948;6.132;2024-02-14T08:05:29;9.90;95.40
48579;DHT22;34357;51.948;6.132;2024-02-14T08:07:54;9.90;95.40
48579;DHT22;34357;51.948;6.132;2024-02-14T08:10:20;9.90;95.30
48579;DHT22;34357;51.948;6.132;2024-02-14T08:12:46;9.90;95.30
48579;DHT22;34357;51.948;6.132;2024-02-14T08:15:13;9.90;95.30
48579;DHT22;34357;51.948;6.132;2024-02-14T08:17:38;10.00;95.30
48579;DHT22;34357;51.948;6.132;2024-02-14T08:20:05;10.00;95.20
48579;DHT22;34357;51.948;6.132;2024-02-14T08:22:31;10.10;95.20
48579;DHT22;34357;51.948;6.132;2024-02-14T08:24:58;10.10;95.20
48579;DHT22;34357;51.948;6.132;2024-02-14T08:27:23;10.10;95.10
48579;DHT22;34357;51.948;6.132;2024-02-14T08:29:50;10.10;95.10
48579;DHT22;34357;51.948;6.132;2024-02-14T08:32:15;10.10;95.10
48579;DHT22;34357;51.948;6.132;2024-02-14T08:34:41;10.10;95.00
48579;DHT22;34357;51.948;6.132;2024-02-14T08:37:07;10.20;95.00
48579;DHT22;34357;51.948;6.132;2024-02-14T08:39:34;10.20;94.90
48579;DHT22;34357;51.948;6.132;2024-02-14T08:41:59;10.20;94.90
48579;DHT22;34357;51.948;6.132;2024-02-14T08:44:28;10.20;94.90
48579;DHT22;34357;51.948;6.132;2024-02-14T08:46:54;10.20;94.90
48579;DHT22;34357;51.948;6.132;2024-02-14T08:49:20;10.20;94.90
48579;DHT22;34357;51.948;6.132;2024-02-14T08:51:46;10.20;95.00
48579;DHT22;34357;51.948;6.132;2024-02-14T08:54:13;10.20;95.00
48579;DHT22;34357;51.948;6.132;2024-02-14T08:56:39;10.20;94.90
48579;DHT22;34357;51.948;6.132;2024-02-14T08:59:04;10.20;94.90
48579;DHT22;34357;51.948;6.132;2024-02-14T09:01:32;10.20;95.00
48579;DHT22;34357;51.948;6.132;2024-02-14T09:03:58;10.30;95.00
48579;DHT22;34357;51.948;6.132;2024-02-14T09:06:25;10.20;95.00
48579;DHT22;34357;51.948;6.132;2024-02-14T09:08:53;10.30;95.00
48579;DHT22;34357;51.948;6.132;2024-02-14T09:11:21;10.30;95.10
48579;DHT22;34357;51.948;6.132;2024-02-14T09:13:48;10.30;95.20
48579;DHT22;34357;51.948;6.132;2024-02-14T09:16:16;10.30;95.20
48579;DHT22;34357;51.948;6.132;2024-02-14T09:18:42;10.30;95.20
48579;DHT22;34357;51.948;6.132;2024-02-14T09:21:08;10.40;95.20
48579;DHT22;34357;51.948;6.132;2024-02-14T09:23:34;10.40;95.20
48579;DHT22;34357;51.948;6.132;2024-02-14T09:26:00;10.40;95.20
48579;DHT22;34357;51.948;6.132;2024-02-14T09:28:27;10.40;95.20
48579;DHT22;34357;51.948;6.132;2024-02-14T09:30:53;10.40;95.30
48579;DHT22;34357;51.948;6.132;2024-02-14T09:33:20;10.40;95.30
48579;DHT22;34357;51.948;6.132;2024-02-14T09:35:45;10.30;95.30
48579;DHT22;34357;51.948;6.132;2024-02-14T09:38:14;10.40;95.30
48579;DHT22;34357;51.948;6.132;2024-02-14T09:40:43;10.40;95.30
48579;DHT22;34357;51.948;6.132;2024-02-14T09:43:32;10.40;95.30
48579;DHT22;34357;51.948;6.132;2024-02-14T09:46:00;10.40;95.30
48579;DHT22;34357;51.948;6.132;2024-02-14T09:48:30;10.50;95.20
48579;DHT22;34357;51.948;6.132;2024-02-14T09:50:56;10.50;95.20
48579;DHT22;34357;51.948;6.132;2024-02-14T09:53:23;10.50;95.20
48579;DHT22;34357;51.948;6.132;2024-02-14T09:55:49;10.40;95.10
48579;DHT22;34357;51.948;6.132;2024-02-14T09:58:17;10.40;95.20
48579;DHT22;34357;51.948;6.132;2024-02-14T10:00:43;10.40;95.20
48579;DHT22;34357;51.948;6.132;2024-02-14T10:03:09;10.40;95.10
48579;DHT22;34357;51.948;6.132;2024-02-14T10:05:35;10.40;95.10
48579;DHT22;34357;51.948;6.132;2024-02-14T10:08:01;10.50;95.20
48579;DHT22;34357;51.948;6.132;2024-02-14T10:10:27;10.40;95.20
48579;DHT22;34357;51.948;6.132;2024-02-14T10:12:56;10.40;95.20
48579;DHT22;34357;51.948;6.132;2024-02-14T10:15:23;10.40;95.20
48579;DHT22;34357;51.948;6.132;2024-02-14T10:17:49;10.40;95.10
48579;DHT22;34357;51.948;6.132;2024-02-14T10:20:18;10.40;95.20
48579;DHT22;34357;51.948;6.132;2024-02-14T10:22:44;10.40;95.20
48579;DHT22;34357;51.948;6.132;2024-02-14T10:25:11;10.40;95.20
48579;DHT22;34357;51.948;6.132;2024-02-14T10:27:38;10.50;95.20
48579;DHT22;34357;51.948;6.132;2024-02-14T10:30:07;10.50;95.10
48579;DHT22;34357;51.948;6.132;2024-02-14T10:32:36;10.50;95.10
48579;DHT22;34357;51.948;6.132;2024-02-14T10:35:05;10.60;95.00
48579;DHT22;34357;51.948;6.132;2024-02-14T10:37:37;10.60;95.10
48579;DHT22;34357;51.948;6.132;2024-02-14T10:40:05;10.70;95.00
48579;DHT22;34357;51.948;6.132;2024-02-14T10:42:33;10.80;94.90
48579;DHT22;34357;51.948;6.132;2024-02-14T10:45:02;10.80;94.70
48579;DHT22;34357;51.948;6.132;2024-02-14T10:47:35;10.80;94.70
48579;DHT22;34357;51.948;6.132;2024-02-14T10:50:05;10.80;94.60
48579;DHT22;34357;51.948;6.132;2024-02-14T10:52:34;10.80;94.50
48579;DHT22;34357;51.948;6.132;2024-02-14T10:55:03;10.80;94.60
48579;DHT22;34357;51.948;6.132;2024-02-14T10:57:30;10.90;94.50
48579;DHT22;34357;51.948;6.132;2024-02-14T10:59:57;10.90;94.50
48579;DHT22;34357;51.948;6.132;2024-02-14T11:02:24;10.90;94.40
48579;DHT22;34357;51.948;6.132;2024-02-14T11:04:50;10.90;94.40
48579;DHT22;34357;51.948;6.132;2024-02-14T11:07:20;10.90;94.40
48579;DHT22;34357;51.948;6.132;2024-02-14T11:09:59;11.00;94.30
48579;DHT22;34357;51.948;6.132;2024-02-14T11:12:26;11.10;94.30
48579;DHT22;34357;51.948;6.132;2024-02-14T11:14:57;11.10;94.30
48579;DHT22;34357;51.948;6.132;2024-02-14T11:17:24;11.20;94.30
48579;DHT22;34357;51.948;6.132;2024-02-14T11:19:52;11.30;94.10
48579;DHT22;34357;51.948;6.132;2024-02-14T11:22:19;11.20;94.00
48579;DHT22;34357;51.948;6.132;2024-02-14T11:24:46;11.20;94.00
48579;DHT22;34357;51.948;6.132;2024-02-14T11:27:12;11.20;94.00
48579;DHT22;34357;51.948;6.132;2024-02-14T11:29:51;11.20;94.00
48579;DHT22;34357;51.948;6.132;2024-02-14T11:32:17;11.30;94.00
48579;DHT22;34357;51.948;6.132;2024-02-14T11:34:43;11.30;94.00
48579;DHT22;34357;51.948;6.132;2024-02-14T11:37:09;11.30;94.10
48579;DHT22;34357;51.948;6.132;2024-02-14T11:39:35;11.20;94.10
48579;DHT22;34357;51.948;6.132;2024-02-14T11:42:02;11.30;94.00
48579;DHT22;34357;51.948;6.132;2024-02-14T11:44:28;11.30;94.00
48579;DHT22;34357;51.948;6.132;2024-02-14T11:46:54;11.20;94.00
48579;DHT22;34357;51.948;6.132;2024-02-14T11:49:20;11.30;94.00
48579;DHT22;34357;51.948;6.132;2024-02-14T11:51:46;11.30;94.00
48579;DHT22;34357;51.948;6.132;2024-02-14T11:54:13;11.30;94.00
48579;DHT22;34357;51.948;6.132;2024-02-14T11:56:39;11.30;93.90
48579;DHT22;34357;51.948;6.132;2024-02-14T11:59:07;11.30;93.90
48579;DHT22;34357;51.948;6.132;2024-02-14T12:01:34;11.30;94.00
48579;DHT22;34357;51.948;6.132;2024-02-14T12:04:01;11.20;94.10
48579;DHT22;34357;51.948;6.132;2024-02-14T12:06:29;11.20;94.10
48579;DHT22;34357;51.948;6.132;2024-02-14T12:08:57;11.30;94.20
48579;DHT22;34357;51.948;6.132;2024-02-14T12:11:27;11.30;94.30
48579;DHT22;34357;51.948;6.132;2024-02-14T12:13:54;11.30;94.40
48579;DHT22;34357;51.948;6.132;2024-02-14T12:16:20;11.20;94.40
48579;DHT22;34357;51.948;6.132;2024-02-14T12:18:49;11.20;94.40
48579;DHT22;34357;51.948;6.132;2024-02-14T12:21:15;11.20;94.50
48579;DHT22;34357;51.948;6.132;2024-02-14T12:23:40;11.20;94.50
48579;DHT22;34357;51.948;6.132;2024-02-14T12:26:07;11.20;94.50
48579;DHT22;34357;51.948;6.132;2024-02-14T12:28:33;11.20;94.60
48579;DHT22;34357;51.948;6.132;2024-02-14T12:31:00;11.30;94.50
48579;DHT22;34357;51.948;6.132;2024-02-14T12:33:26;11.30;94.50
48579;DHT22;34357;51.948;6.132;2024-02-14T12:35:54;11.30;94.50
48579;DHT22;34357;51.948;6.132;2024-02-14T12:38:21;11.30;94.60
48579;DHT22;34357;51.948;6.132;2024-02-14T12:40:48;11.40;94.60
48579;DHT22;34357;51.948;6.132;2024-02-14T12:43:15;11.30;94.50
48579;DHT22;34357;51.948;6.132;2024-02-14T12:45:43;11.40;94.60
48579;DHT22;34357;51.948;6.132;2024-02-14T12:48:10;11.40;94.60
48579;DHT22;34357;51.948;6.132;2024-02-14T12:50:37;11.40;94.60
48579;DHT22;34357;51.948;6.132;2024-02-14T12:53:07;11.30;94.60
48579;DHT22;34357;51.948;6.132;2024-02-14T12:55:33;11.30;94.60
48579;DHT22;34357;51.948;6.132;2024-02-14T12:57:59;11.30;94.70
48579;DHT22;34357;51.948;6.132;2024-02-14T13:00:26;11.40;94.70
48579;DHT22;34357;51.948;6.132;2024-02-14T13:02:52;11.30;94.70
48579;DHT22;34357;51.948;6.132;2024-02-14T13:05:19;11.30;94.70
48579;DHT22;34357;51.948;6.132;2024-02-14T13:07:45;11.30;94.70
48579;DHT22;34357;51.948;6.132;2024-02-14T13:10:12;11.30;94.70
48579;DHT22;34357;51.948;6.132;2024-02-14T13:12:38;11.30;94.70
48579;DHT22;34357;51.948;6.132;2024-02-14T13:15:08;11.30;94.70
48579;DHT22;34357;51.948;6.132;2024-02-14T13:17:34;11.30;94.70
48579;DHT22;34357;51.948;6.132;2024-02-14T13:20:00;11.30;94.70
48579;DHT22;34357;51.948;6.132;2024-02-14T13:22:26;11.30;94.70
48579;DHT22;34357;51.948;6.132;2024-02-14T13:24:53;11.30;94.70
48579;DHT22;34357;51.948;6.132;2024-02-14T13:27:18;11.30;94.80
48579;DHT22;34357;51.948;6.132;2024-02-14T13:29:47;11.30;94.80
48579;DHT22;34357;51.948;6.132;2024-02-14T13:32:13;11.30;94.90
48579;DHT22;34357;51.948;6.132;2024-02-14T13:34:38;11.30;94.90
48579;DHT22;34357;51.948;6.132;2024-02-14T13:37:04;11.30;95.00
48579;DHT22;34357;51.948;6.132;2024-02-14T13:39:31;11.30;95.00
48579;DHT22;34357;51.948;6.132;2024-02-14T13:41:57;11.30;95.00
48579;DHT22;34357;51.948;6.132;2024-02-14T13:44:25;11.30;95.00
48579;DHT22;34357;51.948;6.132;2024-02-14T13:46:51;11.30;95.00
48579;DHT22;34357;51.948;6.132;2024-02-14T13:49:21;11.30;95.00
48579;DHT22;34357;51.948;6.132;2024-02-14T13:51:50;11.30;95.00
48579;DHT22;34357;51.948;6.132;2024-02-14T13:54:20;11.30;95.00
48579;DHT22;34357;51.948;6.132;2024-02-14T13:56:45;11.30;95.10
48579;DHT22;34357;51.948;6.132;2024-02-14T13:59:14;11.30;95.10
48579;DHT22;34357;51.948;6.132;2024-02-14T14:01:40;11.30;95.10
48579;DHT22;34357;51.948;6.132;2024-02-14T14:04:06;11.30;95.20
48579;DHT22;34357;51.948;6.132;2024-02-14T14:06:32;11.30;95.10
48579;DHT22;34357;51.948;6.132;2024-02-14T14:08:57;11.30;95.20
48579;DHT22;34357;51.948;6.132;2024-02-14T14:11:24;11.20;95.20
48579;DHT22;34357;51.948;6.132;2024-02-14T14:13:50;11.30;95.30
48579;DHT22;34357;51.948;6.132;2024-02-14T14:16:16;11.30;95.30
48579;DHT22;34357;51.948;6.132;2024-02-14T14:18:43;11.20;95.30
48579;DHT22;34357;51.948;6.132;2024-02-14T14:21:08;11.30;95.40
48579;DHT22;34357;51.948;6.132;2024-02-14T14:23:34;11.30;95.40
48579;DHT22;34357;51.948;6.132;2024-02-14T14:26:01;11.20;95.40
48579;DHT22;34357;51.948;6.132;2024-02-14T14:28:27;11.30;95.40
48579;DHT22;34357;51.948;6.132;2024-02-14T14:30:54;11.30;95.50
48579;DHT22;34357;51.948;6.132;2024-02-14T14:33:21;11.30;95.50
48579;DHT22;34357;51.948;6.132;2024-02-14T14:35:47;11.30;95.50
48579;DHT22;34357;51.948;6.132;2024-02-14T14:38:16;11.30;95.50
48579;DHT22;34357;51.948;6.132;2024-02-14T14:40:42;11.30;95.60
48579;DHT22;34357;51.948;6.132;2024-02-14T14:43:08;11.40;95.60
48579;DHT22;34357;51.948;6.132;2024-02-14T14:45:33;11.40;95.60
48579;DHT22;34357;51.948;6.132;2024-02-14T14:47:59;11.40;95.60
48579;DHT22;34357;51.948;6.132;2024-02-14T14:50:25;11.30;95.60
48579;DHT22;34357;51.948;6.132;2024-02-14T14:52:51;11.40;95.60
48579;DHT22;34357;51.948;6.132;2024-02-14T14:55:18;11.40;95.70
48579;DHT22;34357;51.948;6.132;2024-02-14T14:57:44;11.40;95.70
48579;DHT22;34357;51.948;6.132;2024-02-14T15:00:11;11.40;95.70
48579;DHT22;34357;51.948;6.132;2024-02-14T15:02:40;11.40;95.70
48579;DHT22;34357;51.948;6.132;2024-02-14T15:05:12;11.40;95.80
48579;DHT22;34357;51.948;6.132;2024-02-14T15:07:39;11.40;95.70
48579;DHT22;34357;51.948;6.132;2024-02-14T15:10:06;11.40;95.70
48579;DHT22;34357;51.948;6.132;2024-02-14T15:12:33;11.40;95.80
48579;DHT22;34357;51.948;6.132;2024-02-14T15:15:05;11.40;95.80
48579;DHT22;34357;51.948;6.132;2024-02-14T15:17:30;11.40;95.80
48579;DHT22;34357;51.948;6.132;2024-02-14T15:19:57;11.50;95.80
48579;DHT22;34357;51.948;6.132;2024-02-14T15:22:23;11.50;95.80
48579;DHT22;34357;51.948;6.132;2024-02-14T15:24:50;11.50;95.90
48579;DHT22;34357;51.948;6.132;2024-02-14T15:27:18;11.50;95.80
48579;DHT22;34357;51.948;6.132;2024-02-14T15:29:49;11.40;95.80
48579;DHT22;34357;51.948;6.132;2024-02-14T15:32:33;11.50;95.80
48579;DHT22;34357;51.948;6.132;2024-02-14T15:35:18;11.50;95.80
48579;DHT22;34357;51.948;6.132;2024-02-14T15:37:45;11.50;95.80